createdAt,value
2023-03-12T00:01:18.372Z,98980.91
2023-03-12T00:03:46.883Z,98992.47
2023-03-12T00:06:19.227Z,98984.03
2023-03-12T00:08:49.553Z,98974.66
2023-03-12T00:11:21.796Z,98977.75
2023-03-12T00:13:53.864Z,98990.44
2023-03-12T00:16:23.450Z,98989.19
2023-03-12T00:18:55.698Z,98985.91
2023-03-12T00:21:25.197Z,99021.88
2023-03-12T00:23:55.692Z,98978.09
2023-03-12T00:26:24.682Z,99000.75
2023-03-12T00:28:53.919Z,98992.56
2023-03-12T00:31:24.242Z,98987.75
2023-03-12T00:33:52.553Z,98995.09
2023-03-12T00:36:24.409Z,98995.84
2023-03-12T00:38:54.434Z,98993.19
2023-03-12T00:41:23.639Z,99004.47
2023-03-12T00:43:53.157Z,98993.19
2023-03-12T00:46:22.526Z,99002.09
2023-03-12T00:48:51.070Z,99007.09
2023-03-12T00:51:19.669Z,98974.69
2023-03-12T00:53:48.103Z,98973.44
2023-03-12T00:56:17.930Z,98976.22
2023-03-12T00:58:46.430Z,98993.72
2023-03-12T01:01:15.091Z,99004.06
2023-03-12T01:03:43.541Z,99004.66
2023-03-12T01:06:12.102Z,98995.13
2023-03-12T01:08:40.590Z,99027.03
2023-03-12T01:11:09.232Z,99030.13
2023-03-12T01:13:39.033Z,99023.69
2023-03-12T01:16:08.416Z,99049.19
2023-03-12T01:18:36.806Z,99035.72
2023-03-12T01:21:06.108Z,99039.63
2023-03-12T01:23:34.636Z,99040.03
2023-03-12T01:26:02.998Z,99046.78
2023-03-12T01:28:31.880Z,99034.16
2023-03-12T01:31:08.218Z,99056.97
2023-03-12T01:33:36.680Z,99061.66
2023-03-12T01:36:05.628Z,99053.47
2023-03-12T01:38:33.997Z,99059.00
2023-03-12T01:41:02.406Z,99068.03
2023-03-12T01:43:32.994Z,99066.00
2023-03-12T01:46:30.105Z,99071.19
2023-03-12T01:49:15.621Z,99068.75
2023-03-12T01:51:47.608Z,99090.63
2023-03-12T01:54:21.758Z,99079.38
2023-03-12T01:56:51.664Z,99082.31
2023-03-12T01:59:24.301Z,99046.22
2023-03-12T02:01:54.527Z,99055.38
2023-03-12T02:04:26.316Z,99035.22
2023-03-12T02:07:02.311Z,99047.53
2023-03-12T02:09:32.322Z,99022.38
2023-03-12T02:12:00.873Z,98998.78
2023-03-12T02:14:29.642Z,99003.59
2023-03-12T02:16:59.659Z,99009.19
2023-03-12T02:19:36.262Z,99019.47
2023-03-12T02:22:05.737Z,99019.00
2023-03-12T02:24:41.180Z,99011.94
2023-03-12T02:27:13.262Z,99019.53
2023-03-12T02:29:46.048Z,99039.69
2023-03-12T02:32:21.595Z,99067.91
2023-03-12T02:34:50.807Z,99089.06
2023-03-12T02:37:19.927Z,99121.72
2023-03-12T02:39:55.212Z,99132.56
2023-03-12T02:42:26.277Z,99128.03
2023-03-12T02:44:55.553Z,99151.75
2023-03-12T02:47:23.895Z,99167.38
2023-03-12T02:49:54.045Z,99179.94
2023-03-12T02:52:22.320Z,99188.41
2023-03-12T02:54:50.661Z,99198.50
2023-03-12T02:57:19.184Z,99211.69
2023-03-12T02:59:49.524Z,99237.16
2023-03-12T03:02:17.827Z,99225.47
2023-03-12T03:04:46.169Z,99245.78
2023-03-12T03:07:15.002Z,99247.25
2023-03-12T03:09:43.578Z,99268.56
2023-03-12T03:12:11.990Z,99271.63
2023-03-12T03:14:40.348Z,99297.28
2023-03-12T03:17:10.187Z,99303.22
2023-03-12T03:19:38.567Z,99304.63
2023-03-12T03:22:06.958Z,99331.72
2023-03-12T03:24:36.258Z,99332.50
2023-03-12T03:27:04.651Z,99347.66
2023-03-12T03:29:33.085Z,99350.59
2023-03-12T03:32:01.410Z,99355.09
2023-03-12T03:34:31.198Z,99355.66
2023-03-12T03:36:59.535Z,99378.47
2023-03-12T03:39:29.645Z,99382.38
2023-03-12T03:41:58.050Z,99383.63
2023-03-12T03:44:26.444Z,99391.28
2023-03-12T03:46:55.562Z,99407.06
2023-03-12T03:49:24.410Z,99408.44
2023-03-12T03:51:54.212Z,99421.75
2023-03-12T03:54:22.625Z,99417.53
2023-03-12T03:56:51.002Z,99414.31
2023-03-12T03:59:19.394Z,99414.38
2023-03-12T04:01:47.702Z,99416.91
2023-03-12T04:04:16.049Z,99414.66
2023-03-12T04:06:44.329Z,99417.59
2023-03-12T04:09:14.394Z,99432.50
2023-03-12T04:11:42.669Z,99440.47
2023-03-12T04:14:11.025Z,99453.28
2023-03-12T04:16:39.375Z,99436.91
2023-03-12T04:19:07.801Z,99447.72
2023-03-12T04:21:36.109Z,99457.56
2023-03-12T04:24:04.539Z,99454.47
2023-03-12T04:26:34.287Z,99454.75
2023-03-12T04:29:02.741Z,99468.44
2023-03-12T04:31:31.128Z,99455.13
2023-03-12T04:33:59.514Z,99453.50
2023-03-12T04:36:28.094Z,99454.34
2023-03-12T04:38:57.521Z,99445.78
2023-03-12T04:41:25.949Z,99438.34
2023-03-12T04:43:55.681Z,99435.72
2023-03-12T04:46:24.116Z,99443.91
2023-03-12T04:48:52.613Z,99441.97
2023-03-12T04:51:21.089Z,99457.72
2023-03-12T04:53:49.422Z,99456.41
2023-03-12T04:56:17.930Z,99464.31
2023-03-12T04:58:46.408Z,99474.94
2023-03-12T05:01:25.224Z,99477.72
2023-03-12T05:03:54.542Z,99487.34
2023-03-12T05:06:23.918Z,99504.53
2023-03-12T05:08:53.640Z,99507.97
2023-03-12T05:11:22.887Z,99522.78
2023-03-12T05:13:51.467Z,99520.16
2023-03-12T05:16:21.577Z,99521.38
2023-03-12T05:18:50.015Z,99534.88
2023-03-12T05:21:21.520Z,99523.66
2023-03-12T05:23:53.477Z,99535.84
2023-03-12T05:26:26.835Z,99539.34
2023-03-12T05:28:56.288Z,99555.34
2023-03-12T05:31:26.595Z,99551.28
2023-03-12T05:33:55.847Z,99561.56
2023-03-12T05:36:24.398Z,99573.06
2023-03-12T05:38:53.326Z,99580.16
2023-03-12T05:41:26.455Z,99580.03
2023-03-12T05:43:56.531Z,99587.38
2023-03-12T05:46:27.631Z,99586.88
2023-03-12T05:48:56.233Z,99596.13
2023-03-12T05:51:24.661Z,99600.16
2023-03-12T05:53:53.037Z,99612.28
2023-03-12T05:56:21.650Z,99600.47
2023-03-12T05:58:51.003Z,99615.78
2023-03-12T06:01:22.178Z,99622.00
2023-03-12T06:03:51.933Z,99625.94
2023-03-12T06:06:21.365Z,99627.34
2023-03-12T06:08:49.677Z,99636.22
2023-03-12T06:11:18.432Z,99639.59
2023-03-12T06:13:46.785Z,99642.16
2023-03-12T06:16:19.142Z,99653.06
2023-03-12T06:18:48.194Z,99647.09
2023-03-12T06:21:19.903Z,99654.00
2023-03-12T06:23:49.887Z,99658.06
2023-03-12T06:26:18.588Z,99655.41
2023-03-12T06:28:47.759Z,99671.41
2023-03-12T06:31:17.155Z,99670.59
2023-03-12T06:33:45.522Z,99675.84
2023-03-12T06:36:14.543Z,99679.09
2023-03-12T06:38:44.405Z,99682.16
2023-03-12T06:41:14.211Z,99690.38
2023-03-12T06:43:43.652Z,99681.53
2023-03-12T06:46:16.908Z,99685.28
2023-03-12T06:48:46.699Z,99693.88
2023-03-12T06:51:16.721Z,99686.88
2023-03-12T06:53:47.194Z,99695.16
2023-03-12T06:56:16.100Z,99708.56
2023-03-12T06:58:44.453Z,99704.63
2023-03-12T07:01:13.142Z,99709.75
2023-03-12T07:03:41.597Z,99725.22
2023-03-12T07:06:15.467Z,99737.06
2023-03-12T07:08:44.227Z,99727.97
2023-03-12T07:11:14.470Z,99731.53
2023-03-12T07:13:43.313Z,99738.63
2023-03-12T07:16:12.605Z,99742.78
2023-03-12T07:18:41.035Z,99750.97
2023-03-12T07:21:09.440Z,99750.97
2023-03-12T07:23:38.117Z,99757.97
2023-03-12T07:26:07.348Z,99763.41
2023-03-12T07:28:37.110Z,99765.28
2023-03-12T07:31:06.486Z,99772.78
2023-03-12T07:33:36.615Z,99783.72
2023-03-12T07:36:05.784Z,99772.59
2023-03-12T07:38:34.228Z,99783.13
2023-03-12T07:41:02.695Z,99788.06
2023-03-12T07:43:31.403Z,99786.28
2023-03-12T07:46:01.240Z,99785.69
2023-03-12T07:48:29.541Z,99800.50
2023-03-12T07:50:58.153Z,99797.56
2023-03-12T07:53:26.853Z,99823.09
2023-03-12T07:55:57.052Z,99832.28
2023-03-12T07:58:25.736Z,99827.66
2023-03-12T08:00:56.556Z,99826.06
2023-03-12T08:03:26.779Z,99839.78
2023-03-12T08:06:05.576Z,99834.06
2023-03-12T08:08:36.273Z,99827.34
2023-03-12T08:11:06.108Z,99834.34
2023-03-12T08:13:34.657Z,99837.81
2023-03-12T08:16:03.239Z,99846.69
2023-03-12T08:18:33.086Z,99858.19
2023-03-12T08:21:01.504Z,99864.19
2023-03-12T08:23:29.870Z,99867.53
2023-03-12T08:26:00.026Z,99877.47
2023-03-12T08:28:28.483Z,99884.13
2023-03-12T08:31:00.816Z,99900.16
2023-03-12T08:33:29.475Z,99898.25
2023-03-12T08:36:00.401Z,99909.75
2023-03-12T08:38:28.912Z,99903.47
2023-03-12T08:40:58.512Z,99911.41
2023-03-12T08:43:29.298Z,99922.47
2023-03-12T08:45:59.594Z,99920.13
2023-03-12T08:48:28.636Z,99928.97
2023-03-12T08:50:58.981Z,99923.75
2023-03-12T08:53:28.417Z,99936.63
2023-03-12T08:55:57.599Z,99935.69
2023-03-12T08:58:27.287Z,99949.75
2023-03-12T09:00:58.483Z,99952.19
2023-03-12T09:03:27.420Z,99949.19
2023-03-12T09:06:09.798Z,99958.41
2023-03-12T09:08:38.158Z,99960.38
2023-03-12T09:11:06.762Z,99968.53
2023-03-12T09:13:54.634Z,99965.88
2023-03-12T09:16:23.393Z,99958.88
2023-03-12T09:18:51.804Z,99964.31
2023-03-12T09:21:21.642Z,99980.97
2023-03-12T09:23:50.092Z,99984.47
2023-03-12T09:26:18.515Z,99980.38
2023-03-12T09:28:46.942Z,99978.34
2023-03-12T09:31:15.300Z,99987.84
2023-03-12T09:33:43.877Z,99991.69
2023-03-12T09:36:12.264Z,99983.69
2023-03-12T09:38:43.457Z,99986.28
2023-03-12T09:41:21.349Z,99983.84
2023-03-12T09:43:56.424Z,99990.44
2023-03-12T09:46:31.584Z,99992.88
2023-03-12T09:49:03.297Z,99988.91
2023-03-12T09:51:37.551Z,100004.94
2023-03-12T09:54:15.257Z,100009.59
2023-03-12T09:56:44.487Z,99998.03
2023-03-12T09:59:14.017Z,100010.06
2023-03-12T10:01:49.409Z,100010.22
2023-03-12T10:04:58.118Z,100011.53
2023-03-12T10:07:34.163Z,100014.38
2023-03-12T10:10:22.001Z,100018.03
2023-03-12T10:13:09.491Z,100021.03
2023-03-12T10:15:49.903Z,100006.19
2023-03-12T10:18:26.908Z,100018.03
2023-03-12T10:21:08.169Z,100023.22
2023-03-12T10:23:49.242Z,100020.66
2023-03-12T10:26:23.624Z,100030.22
2023-03-12T10:28:54.190Z,100020.28
2023-03-12T10:31:27.848Z,100026.72
2023-03-12T10:33:59.173Z,100025.75
2023-03-12T10:36:35.255Z,100030.06
2023-03-12T10:39:04.393Z,100026.78
2023-03-12T10:41:35.102Z,100020.59
2023-03-12T10:44:09.193Z,100014.34
2023-03-12T10:47:05.028Z,100021.84
2023-03-12T10:49:35.550Z,100024.94
2023-03-12T10:52:07.415Z,100018.97
2023-03-12T10:54:38.429Z,100015.59
2023-03-12T10:57:09.655Z,100022.34
2023-03-12T10:59:43.180Z,100019.91
2023-03-12T11:02:33.219Z,100027.94
2023-03-12T11:05:03.756Z,100019.72
2023-03-12T11:07:33.990Z,100031.44
2023-03-12T11:10:18.216Z,100035.75
2023-03-12T11:13:06.611Z,100041.44
2023-03-12T11:15:43.169Z,100041.78
2023-03-12T11:18:25.289Z,100035.03
2023-03-12T11:20:56.596Z,100037.47
2023-03-12T11:23:29.363Z,100038.50
2023-03-12T11:26:01.975Z,100045.09
2023-03-12T11:28:38.090Z,100047.28
2023-03-12T11:31:11.902Z,100048.75
2023-03-12T11:33:40.502Z,100050.53
2023-03-12T11:36:21.474Z,100046.09
2023-03-12T11:38:59.144Z,100047.50
2023-03-12T11:41:42.432Z,100046.00
2023-03-12T11:44:34.585Z,100045.75
2023-03-12T11:47:18.039Z,100048.91
2023-03-12T11:50:14.928Z,100048.63
2023-03-12T11:52:56.606Z,100053.59
2023-03-12T11:55:47.073Z,100058.78
2023-03-12T11:58:44.316Z,100048.38
2023-03-12T12:01:23.089Z,100063.03
2023-03-12T12:04:16.651Z,100065.63
2023-03-12T12:06:59.201Z,100065.91
2023-03-12T12:09:38.197Z,100067.22
2023-03-12T12:12:31.152Z,100066.91
2023-03-12T12:15:09.209Z,100068.44
2023-03-12T12:17:51.608Z,100076.84
2023-03-12T12:20:26.974Z,100066.34
2023-03-12T12:23:26.628Z,100082.19
2023-03-12T12:26:06.164Z,100079.81
2023-03-12T12:28:57.196Z,100090.34
2023-03-12T12:31:37.803Z,100090.63
2023-03-12T12:34:36.099Z,100098.44
2023-03-12T12:37:20.706Z,100096.31
2023-03-12T12:39:55.460Z,100101.94
2023-03-12T12:42:29.330Z,100109.69
2023-03-12T12:45:00.258Z,100104.56
2023-03-12T12:47:38.948Z,100117.63
2023-03-12T12:50:16.105Z,100115.84
2023-03-12T12:52:45.228Z,100125.00
2023-03-12T12:55:18.549Z,100132.97
2023-03-12T12:57:53.460Z,100131.84
2023-03-12T13:00:32.633Z,100148.44
2023-03-12T13:03:01.833Z,100158.72
2023-03-12T13:05:47.636Z,100164.59
2023-03-12T13:08:59.397Z,100148.50
2023-03-12T13:11:32.129Z,100156.31
2023-03-12T13:14:22.018Z,100157.00
2023-03-12T13:16:50.632Z,100160.53
2023-03-12T13:19:44.883Z,100164.13
2023-03-12T13:22:28.554Z,100170.91
2023-03-12T13:25:05.197Z,100173.72
2023-03-12T13:27:39.215Z,100175.69
2023-03-12T13:30:43.805Z,100175.38
2023-03-12T13:33:18.334Z,100178.88
2023-03-12T13:36:04.966Z,100185.63
2023-03-12T13:38:40.751Z,100186.53
2023-03-12T13:41:10.915Z,100189.25
2023-03-12T13:43:52.819Z,100187.44
2023-03-12T13:46:46.111Z,100191.28
2023-03-12T13:49:20.458Z,100185.47
2023-03-12T13:52:11.287Z,100190.94
2023-03-12T13:54:46.850Z,100189.41
2023-03-12T13:57:27.728Z,100193.63
2023-03-12T13:59:58.118Z,100200.34
2023-03-12T14:02:30.252Z,100206.13
2023-03-12T14:05:06.643Z,100210.16
2023-03-12T14:07:57.314Z,100208.94
2023-03-12T14:10:35.186Z,100218.38
2023-03-12T14:13:26.707Z,100221.09
2023-03-12T14:16:05.019Z,100221.66
2023-03-12T14:18:37.356Z,100216.28
2023-03-12T14:21:10.813Z,100212.81
2023-03-12T14:23:41.993Z,100219.50
2023-03-12T14:26:22.283Z,100227.09
2023-03-12T14:29:01.155Z,100227.41
2023-03-12T14:31:31.458Z,100229.13
2023-03-12T14:34:05.623Z,100228.91
2023-03-12T14:36:41.164Z,100226.16
2023-03-12T14:39:23.720Z,100224.72
2023-03-12T14:41:57.909Z,100234.88
2023-03-12T14:44:28.439Z,100232.22
2023-03-12T14:47:02.044Z,100241.88
2023-03-12T14:49:31.482Z,100235.81
2023-03-12T14:51:59.952Z,100243.03
2023-03-12T14:54:30.170Z,100235.63
2023-03-12T14:57:00.072Z,100240.19
2023-03-12T14:59:31.299Z,100246.75
2023-03-12T15:02:04.889Z,100246.06
2023-03-12T15:04:36.550Z,100252.72
2023-03-12T15:07:07.744Z,100258.81
2023-03-12T15:09:37.896Z,100262.72
2023-03-12T15:12:18.758Z,100269.94
2023-03-12T15:14:51.825Z,100271.34
2023-03-12T15:17:22.266Z,100271.88
2023-03-12T15:19:59.151Z,100284.41
2023-03-12T15:22:29.074Z,100278.47
2023-03-12T15:24:57.492Z,100290.22
2023-03-12T15:27:36.089Z,100289.66
2023-03-12T15:30:26.766Z,100292.63
2023-03-12T15:33:12.822Z,100297.44
2023-03-12T15:35:44.011Z,100310.13
2023-03-12T15:38:17.562Z,100307.78
2023-03-12T15:40:51.560Z,100309.91
2023-03-12T15:43:23.785Z,100313.38
2023-03-12T15:46:00.886Z,100316.81
2023-03-12T15:48:32.096Z,100311.78
2023-03-12T15:51:00.892Z,100322.63
2023-03-12T15:53:32.589Z,100330.84
2023-03-12T15:56:05.606Z,100329.72
2023-03-12T15:58:37.186Z,100336.38
2023-03-12T16:01:10.426Z,100332.22
2023-03-12T16:03:39.677Z,100338.31
2023-03-12T16:06:12.985Z,100342.59
2023-03-12T16:08:45.061Z,100346.91
2023-03-12T16:11:17.852Z,100355.44
2023-03-12T16:13:50.218Z,100356.25
2023-03-12T16:16:18.913Z,100373.00
2023-03-12T16:18:47.335Z,100366.63
2023-03-12T16:21:15.722Z,100365.03
2023-03-12T16:23:44.256Z,100372.44
2023-03-12T16:26:15.588Z,100385.50
2023-03-12T16:28:44.859Z,100388.44
2023-03-12T16:31:16.182Z,100383.38
2023-03-12T16:33:45.318Z,100397.22
2023-03-12T16:36:19.306Z,100403.31
2023-03-12T16:38:48.486Z,100405.41
2023-03-12T16:41:20.054Z,100413.41
2023-03-12T16:43:51.549Z,100421.66
2023-03-12T16:46:23.538Z,100422.47
2023-03-12T16:48:54.022Z,100426.19
2023-03-12T16:51:23.139Z,100428.84
2023-03-12T16:54:06.916Z,100434.47
2023-03-12T16:56:39.448Z,100437.13
2023-03-12T16:59:14.362Z,100444.31
2023-03-12T17:01:44.237Z,100452.03
2023-03-12T17:04:13.031Z,100455.19
2023-03-12T17:06:41.657Z,100454.13
2023-03-12T17:09:10.290Z,100457.06
2023-03-12T17:11:39.526Z,100469.81
2023-03-12T17:14:22.057Z,100472.47
2023-03-12T17:16:52.926Z,100476.47
2023-03-12T17:19:21.353Z,100481.00
2023-03-12T17:21:50.834Z,100494.84
2023-03-12T17:24:19.861Z,100487.91
2023-03-12T17:26:48.907Z,100497.50
2023-03-12T17:29:17.333Z,100508.09
2023-03-12T17:31:45.848Z,100511.81
2023-03-12T17:34:15.933Z,100523.56
2023-03-12T17:36:44.373Z,100518.47
2023-03-12T17:39:12.735Z,100524.34
2023-03-12T17:41:41.085Z,100527.78
2023-03-12T17:44:11.456Z,100528.31
2023-03-12T17:46:46.994Z,100536.28
2023-03-12T17:49:22.786Z,100539.47
2023-03-12T17:51:51.818Z,100544.78
2023-03-12T17:54:20.303Z,100549.03
2023-03-12T17:56:48.610Z,100548.50
2023-03-12T17:59:17.027Z,100551.97
2023-03-12T18:01:45.990Z,100551.16
2023-03-12T18:04:15.853Z,100551.94
2023-03-12T18:06:45.681Z,100554.34
2023-03-12T18:09:14.030Z,100558.88
2023-03-12T18:11:42.630Z,100561.81
2023-03-12T18:14:11.145Z,100563.94
2023-03-12T18:16:39.814Z,100567.38
2023-03-12T18:19:08.159Z,100560.75
2023-03-12T18:21:36.518Z,100568.19
2023-03-12T18:24:14.170Z,100571.66
2023-03-12T18:26:43.366Z,100577.78
2023-03-12T18:29:11.691Z,100587.91
2023-03-12T18:31:40.435Z,100589.50
2023-03-12T18:34:10.460Z,100595.63
2023-03-12T18:36:38.997Z,100606.78
2023-03-12T18:39:09.973Z,100608.09
2023-03-12T18:41:40.816Z,100611.03
2023-03-12T18:44:12.811Z,100615.28
2023-03-12T18:46:41.271Z,100609.72
2023-03-12T18:49:12.488Z,100613.19
2023-03-12T18:51:41.065Z,100618.22
2023-03-12T18:54:12.806Z,100620.88
2023-03-12T18:56:41.359Z,100627.78
2023-03-12T18:59:10.378Z,100628.59
2023-03-12T19:01:39.009Z,100630.97
2023-03-12T19:04:07.456Z,100634.41
2023-03-12T19:06:49.767Z,100641.63
2023-03-12T19:09:21.921Z,100644.50
2023-03-12T19:11:50.909Z,100644.25
2023-03-12T19:14:19.895Z,100646.88
2023-03-12T19:16:48.948Z,100647.16
2023-03-12T19:19:17.890Z,100646.41
2023-03-12T19:21:46.939Z,100651.97
2023-03-12T19:24:15.576Z,100654.38
2023-03-12T19:26:46.195Z,100657.53
2023-03-12T19:29:16.844Z,100666.31
2023-03-12T19:31:48.420Z,100670.00
2023-03-12T19:34:18.238Z,100668.16
2023-03-12T19:36:47.812Z,100671.28
2023-03-12T19:39:21.736Z,100669.69
2023-03-12T19:41:53.546Z,100672.34
2023-03-12T19:44:22.623Z,100676.00
2023-03-12T19:46:51.203Z,100674.13
2023-03-12T19:49:20.930Z,100682.09
2023-03-12T19:51:49.457Z,100680.25
2023-03-12T19:54:17.778Z,100678.63
2023-03-12T19:56:46.079Z,100680.22
2023-03-12T19:59:15.861Z,100687.06
2023-03-12T20:01:44.379Z,100706.13
2023-03-12T20:04:12.825Z,100703.72
2023-03-12T20:06:41.140Z,100715.69
2023-03-12T20:09:09.548Z,100713.72
2023-03-12T20:11:38.049Z,100712.91
2023-03-12T20:14:06.961Z,100716.28
2023-03-12T20:16:37.318Z,100709.56
2023-03-12T20:19:06.174Z,100717.53
2023-03-12T20:21:34.560Z,100714.84
2023-03-12T20:24:03.541Z,100717.72
2023-03-12T20:26:31.782Z,100720.34
2023-03-12T20:29:02.731Z,100720.50
2023-03-12T20:31:31.302Z,100717.28
2023-03-12T20:34:01.562Z,100723.34
2023-03-12T20:36:29.894Z,100725.91
2023-03-12T20:38:59.146Z,100719.56
2023-03-12T20:41:27.973Z,100717.47
2023-03-12T20:43:57.882Z,100717.44
2023-03-12T20:46:28.092Z,100721.38
2023-03-12T20:48:56.942Z,100725.06
2023-03-12T20:51:27.059Z,100729.47
2023-03-12T20:53:57.105Z,100728.69
2023-03-12T20:56:25.833Z,100735.50
2023-03-12T20:58:55.582Z,100735.47
2023-03-12T21:01:24.358Z,100737.56
2023-03-12T21:03:53.753Z,100726.91
2023-03-12T21:06:22.789Z,100742.25
2023-03-12T21:08:53.053Z,100737.94
2023-03-12T21:11:22.301Z,100742.69
2023-03-12T21:13:51.761Z,100747.13
2023-03-12T21:16:20.407Z,100748.19
2023-03-12T21:18:49.740Z,100748.97
2023-03-12T21:21:18.482Z,100752.66
2023-03-12T21:23:47.371Z,100745.72
2023-03-12T21:26:18.420Z,100755.22
2023-03-12T21:28:49.420Z,100755.69
2023-03-12T21:31:18.870Z,100752.97
2023-03-12T21:33:49.521Z,100761.41
2023-03-12T21:36:18.717Z,100748.66
2023-03-12T21:38:47.865Z,100755.06
2023-03-12T21:41:19.451Z,100753.22
2023-03-12T21:43:49.223Z,100750.28
2023-03-12T21:46:19.893Z,100750.28
2023-03-12T21:48:49.908Z,100752.34
2023-03-12T21:51:19.033Z,100753.47
2023-03-12T21:53:47.525Z,100753.47
2023-03-12T21:56:17.933Z,100757.16
2023-03-12T21:58:46.851Z,100754.63
2023-03-12T22:01:17.782Z,100750.38
2023-03-12T22:03:47.622Z,100752.81
2023-03-12T22:06:17.294Z,100744.03
2023-03-12T22:08:48.243Z,100747.69
2023-03-12T22:11:20.034Z,100748.78
2023-03-12T22:13:49.306Z,100750.31
2023-03-12T22:16:18.633Z,100754.25
2023-03-12T22:18:47.854Z,100747.69
2023-03-12T22:21:18.834Z,100751.50
2023-03-12T22:23:48.353Z,100748.94
2023-03-12T22:26:19.235Z,100748.00
2023-03-12T22:28:51.093Z,100749.84
2023-03-12T22:31:20.952Z,100752.25
2023-03-12T22:33:49.935Z,100753.28
2023-03-12T22:36:19.933Z,100754.94
2023-03-12T22:38:49.183Z,100754.94
2023-03-12T22:41:21.623Z,100757.84
2023-03-12T22:43:52.689Z,100757.97
2023-03-12T22:46:23.136Z,100758.94
2023-03-12T22:48:55.319Z,100760.84
2023-03-12T22:51:24.992Z,100767.28
2023-03-12T22:53:54.050Z,100773.16
2023-03-12T22:56:25.171Z,100762.09
2023-03-12T22:58:54.686Z,100769.72
2023-03-12T23:01:24.815Z,100772.19
2023-03-12T23:03:53.732Z,100777.97
2023-03-12T23:06:24.940Z,100783.06
2023-03-12T23:08:55.203Z,100788.38
2023-03-12T23:11:27.017Z,100783.97
2023-03-12T23:13:55.733Z,100792.38
2023-03-12T23:16:26.906Z,100796.28
2023-03-12T23:18:56.570Z,100802.38
2023-03-12T23:21:25.803Z,100805.81
2023-03-12T23:23:55.911Z,100809.28
2023-03-12T23:26:28.639Z,100806.13
2023-03-12T23:28:59.113Z,100817.16
2023-03-12T23:31:28.893Z,100820.06
2023-03-12T23:33:58.914Z,100811.31
2023-03-12T23:36:28.028Z,100822.16
2023-03-12T23:38:56.369Z,100822.91
2023-03-12T23:41:29.408Z,100819.44
2023-03-12T23:43:58.002Z,100821.34
2023-03-12T23:46:27.608Z,100829.88
2023-03-12T23:48:56.044Z,100820.69
2023-03-12T23:51:26.169Z,100824.94
2023-03-12T23:53:57.835Z,100837.00
2023-03-12T23:56:32.333Z,100823.44
2023-03-12T23:59:01.122Z,100830.53
